sensor_id;sensor_type;location;lat;lon;timestamp;temperature;humidity
6106;DHT22;3083;51.508;7.966;2023-05-07T00:00:48;13.70;99.90
6106;DHT22;3083;51.508;7.966;2023-05-07T00:03:16;13.70;99.90
6106;DHT22;3083;51.508;7.966;2023-05-07T00:05:44;13.70;99.90
6106;DHT22;3083;51.508;7.966;2023-05-07T00:08:13;13.70;99.90
6106;DHT22;3083;51.508;7.966;2023-05-07T00:10:41;13.70;99.90
6106;DHT22;3083;51.508;7.966;2023-05-07T00:13:08;13.70;99.90
6106;DHT22;3083;51.508;7.966;2023-05-07T00:15:35;13.70;99.90
6106;DHT22;3083;51.508;7.966;2023-05-07T00:18:02;13.80;99.90
6106;DHT22;3083;51.508;7.966;2023-05-07T00:20:28;13.80;99.90
6106;DHT22;3083;51.508;7.966;2023-05-07T00:22:55;13.80;99.90
6106;DHT22;3083;51.508;7.966;2023-05-07T00:25:24;13.80;99.90
6106;DHT22;3083;51.508;7.966;2023-05-07T00:27:51;13.80;99.90
6106;DHT22;3083;51.508;7.966;2023-05-07T00:30:18;13.80;99.90
6106;DHT22;3083;51.508;7.966;2023-05-07T00:32:45;13.80;99.90
6106;DHT22;3083;51.508;7.966;2023-05-07T00:35:14;13.80;99.90
6106;DHT22;3083;51.508;7.966;2023-05-07T00:37:41;13.90;99.90
6106;DHT22;3083;51.508;7.966;2023-05-07T00:40:09;13.90;99.90
6106;DHT22;3083;51.508;7.966;2023-05-07T00:42:37;13.90;99.90
6106;DHT22;3083;51.508;7.966;2023-05-07T00:45:05;13.90;99.90
6106;DHT22;3083;51.508;7.966;2023-05-07T00:47:33;13.90;99.90
6106;DHT22;3083;51.508;7.966;2023-05-07T00:50:00;13.90;99.90
6106;DHT22;3083;51.508;7.966;2023-05-07T00:52:27;13.90;99.90
6106;DHT22;3083;51.508;7.966;2023-05-07T00:54:55;13.90;99.90
6106;DHT22;3083;51.508;7.966;2023-05-07T00:57:24;13.90;99.90
6106;DHT22;3083;51.508;7.966;2023-05-07T00:59:52;13.90;99.90
6106;DHT22;3083;51.508;7.966;2023-05-07T01:02:19;13.90;99.90
6106;DHT22;3083;51.508;7.966;2023-05-07T01:04:46;13.90;99.90
6106;DHT22;3083;51.508;7.966;2023-05-07T01:07:13;13.90;99.90
6106;DHT22;3083;51.508;7.966;2023-05-07T01:09:40;13.90;99.90
6106;DHT22;3083;51.508;7.966;2023-05-07T01:12:08;13.90;99.90
6106;DHT22;3083;51.508;7.966;2023-05-07T01:14:35;13.90;99.90
6106;DHT22;3083;51.508;7.966;2023-05-07T01:17:04;13.90;99.90
6106;DHT22;3083;51.508;7.966;2023-05-07T01:19:32;13.80;99.90
6106;DHT22;3083;51.508;7.966;2023-05-07T01:22:03;13.80;99.90
6106;DHT22;3083;51.508;7.966;2023-05-07T01:24:32;13.80;99.90
6106;DHT22;3083;51.508;7.966;2023-05-07T01:26:59;13.80;99.90
6106;DHT22;3083;51.508;7.966;2023-05-07T01:29:27;13.80;99.90
6106;DHT22;3083;51.508;7.966;2023-05-07T01:31:56;13.70;99.90
6106;DHT22;3083;51.508;7.966;2023-05-07T01:34:24;13.70;99.90
6106;DHT22;3083;51.508;7.966;2023-05-07T01:36:52;13.70;99.90
6106;DHT22;3083;51.508;7.966;2023-05-07T01:39:21;13.60;99.90
6106;DHT22;3083;51.508;7.966;2023-05-07T01:41:50;13.60;99.90
6106;DHT22;3083;51.508;7.966;2023-05-07T01:44:18;13.50;99.90
6106;DHT22;3083;51.508;7.966;2023-05-07T01:46:46;13.40;99.90
6106;DHT22;3083;51.508;7.966;2023-05-07T01:49:14;13.40;99.90
6106;DHT22;3083;51.508;7.966;2023-05-07T01:51:42;13.40;99.90
6106;DHT22;3083;51.508;7.966;2023-05-07T01:54:09;13.30;99.90
6106;DHT22;3083;51.508;7.966;2023-05-07T01:56:36;13.30;99.90
6106;DHT22;3083;51.508;7.966;2023-05-07T01:59:04;13.30;99.90
6106;DHT22;3083;51.508;7.966;2023-05-07T02:01:31;13.30;99.90
6106;DHT22;3083;51.508;7.966;2023-05-07T02:03:58;13.30;99.90
6106;DHT22;3083;51.508;7.966;2023-05-07T02:06:25;13.30;99.90
6106;DHT22;3083;51.508;7.966;2023-05-07T02:08:52;13.30;99.90
6106;DHT22;3083;51.508;7.966;2023-05-07T02:11:19;13.30;99.90
6106;DHT22;3083;51.508;7.966;2023-05-07T02:13:46;13.20;99.90
6106;DHT22;3083;51.508;7.966;2023-05-07T02:16:14;13.20;99.90
6106;DHT22;3083;51.508;7.966;2023-05-07T02:18:41;13.20;99.90
6106;DHT22;3083;51.508;7.966;2023-05-07T02:21:08;13.20;99.90
6106;DHT22;3083;51.508;7.966;2023-05-07T02:23:35;13.20;99.90
6106;DHT22;3083;51.508;7.966;2023-05-07T02:26:04;13.20;99.90
6106;DHT22;3083;51.508;7.966;2023-05-07T02:28:30;13.20;99.90
6106;DHT22;3083;51.508;7.966;2023-05-07T02:30:58;13.20;99.90
6106;DHT22;3083;51.508;7.966;2023-05-07T02:33:27;13.30;99.90
6106;DHT22;3083;51.508;7.966;2023-05-07T02:35:54;13.20;99.90
6106;DHT22;3083;51.508;7.966;2023-05-07T02:38:21;13.30;99.90
6106;DHT22;3083;51.508;7.966;2023-05-07T02:40:48;13.30;99.90
6106;DHT22;3083;51.508;7.966;2023-05-07T02:43:15;13.30;99.90
6106;DHT22;3083;51.508;7.966;2023-05-07T02:45:42;13.30;99.90
6106;DHT22;3083;51.508;7.966;2023-05-07T02:48:09;13.30;99.90
6106;DHT22;3083;51.508;7.966;2023-05-07T02:50:38;13.30;99.90
6106;DHT22;3083;51.508;7.966;2023-05-07T02:53:05;13.30;99.90
6106;DHT22;3083;51.508;7.966;2023-05-07T02:55:32;13.30;99.90
6106;DHT22;3083;51.508;7.966;2023-05-07T02:57:59;13.30;99.90
6106;DHT22;3083;51.508;7.966;2023-05-07T03:00:26;13.20;99.90
6106;DHT22;3083;51.508;7.966;2023-05-07T03:02:53;13.10;99.90
6106;DHT22;3083;51.508;7.966;2023-05-07T03:05:20;13.10;99.90
6106;DHT22;3083;51.508;7.966;2023-05-07T03:07:48;13.00;99.90
6106;DHT22;3083;51.508;7.966;2023-05-07T03:10:15;13.00;99.90
6106;DHT22;3083;51.508;7.966;2023-05-07T03:12:42;13.00;99.90
6106;DHT22;3083;51.508;7.966;2023-05-07T03:15:10;13.00;99.90
6106;DHT22;3083;51.508;7.966;2023-05-07T03:17:38;13.00;99.90
6106;DHT22;3083;51.508;7.966;2023-05-07T03:20:06;13.00;99.90
6106;DHT22;3083;51.508;7.966;2023-05-07T03:22:33;13.00;99.90
6106;DHT22;3083;51.508;7.966;2023-05-07T03:25:02;13.00;99.90
6106;DHT22;3083;51.508;7.966;2023-05-07T03:27:30;13.00;99.90
6106;DHT22;3083;51.508;7.966;2023-05-07T03:29:56;12.90;99.90
6106;DHT22;3083;51.508;7.966;2023-05-07T03:32:23;12.90;99.90
6106;DHT22;3083;51.508;7.966;2023-05-07T03:34:50;12.90;99.90
6106;DHT22;3083;51.508;7.966;2023-05-07T03:37:17;12.90;99.90
6106;DHT22;3083;51.508;7.966;2023-05-07T03:39:44;12.90;99.90
6106;DHT22;3083;51.508;7.966;2023-05-07T03:42:12;12.90;99.90
6106;DHT22;3083;51.508;7.966;2023-05-07T03:44:40;12.90;99.90
6106;DHT22;3083;51.508;7.966;2023-05-07T03:47:07;12.90;99.90
6106;DHT22;3083;51.508;7.966;2023-05-07T03:49:35;12.90;99.90
6106;DHT22;3083;51.508;7.966;2023-05-07T03:52:02;12.90;99.90
6106;DHT22;3083;51.508;7.966;2023-05-07T03:54:30;12.90;99.90
6106;DHT22;3083;51.508;7.966;2023-05-07T03:56:57;12.90;99.90
6106;DHT22;3083;51.508;7.966;2023-05-07T03:59:25;12.90;99.90
6106;DHT22;3083;51.508;7.966;2023-05-07T04:01:52;12.90;99.90
6106;DHT22;3083;51.508;7.966;2023-05-07T04:04:20;12.90;99.90
6106;DHT22;3083;51.508;7.966;2023-05-07T04:06:47;12.90;99.90
6106;DHT22;3083;51.508;7.966;2023-05-07T04:09:14;13.00;99.90
6106;DHT22;3083;51.508;7.966;2023-05-07T04:11:40;13.00;99.90
6106;DHT22;3083;51.508;7.966;2023-05-07T04:14:07;13.00;99.90
6106;DHT22;3083;51.508;7.966;2023-05-07T04:16:36;13.00;99.90
6106;DHT22;3083;51.508;7.966;2023-05-07T04:19:03;13.00;99.90
6106;DHT22;3083;51.508;7.966;2023-05-07T04:21:30;13.00;99.90
6106;DHT22;3083;51.508;7.966;2023-05-07T04:23:56;13.00;99.90
6106;DHT22;3083;51.508;7.966;2023-05-07T04:26:23;13.00;99.90
6106;DHT22;3083;51.508;7.966;2023-05-07T04:28:50;13.10;99.90
6106;DHT22;3083;51.508;7.966;2023-05-07T04:31:17;13.10;99.90
6106;DHT22;3083;51.508;7.966;2023-05-07T04:33:46;13.10;99.90
6106;DHT22;3083;51.508;7.966;2023-05-07T04:36:12;13.20;99.90
6106;DHT22;3083;51.508;7.966;2023-05-07T04:38:40;13.20;99.90
6106;DHT22;3083;51.508;7.966;2023-05-07T04:41:08;13.20;99.90
6106;DHT22;3083;51.508;7.966;2023-05-07T04:43:35;13.30;99.90
6106;DHT22;3083;51.508;7.966;2023-05-07T04:46:02;13.40;99.90
6106;DHT22;3083;51.508;7.966;2023-05-07T04:48:29;13.40;99.90
6106;DHT22;3083;51.508;7.966;2023-05-07T04:50:57;13.50;99.90
6106;DHT22;3083;51.508;7.966;2023-05-07T04:53:24;13.50;99.90
6106;DHT22;3083;51.508;7.966;2023-05-07T04:55:55;13.60;99.90
6106;DHT22;3083;51.508;7.966;2023-05-07T04:58:22;13.60;99.90
6106;DHT22;3083;51.508;7.966;2023-05-07T05:00:49;13.70;99.90
6106;DHT22;3083;51.508;7.966;2023-05-07T05:03:16;13.70;99.90
6106;DHT22;3083;51.508;7.966;2023-05-07T05:05:43;13.80;99.90
6106;DHT22;3083;51.508;7.966;2023-05-07T05:08:11;13.90;99.90
6106;DHT22;3083;51.508;7.966;2023-05-07T05:10:39;13.90;99.90
6106;DHT22;3083;51.508;7.966;2023-05-07T05:13:07;13.90;99.90
6106;DHT22;3083;51.508;7.966;2023-05-07T05:15:34;13.90;99.90
6106;DHT22;3083;51.508;7.966;2023-05-07T05:18:01;14.00;99.90
6106;DHT22;3083;51.508;7.966;2023-05-07T05:20:28;14.10;99.90
6106;DHT22;3083;51.508;7.966;2023-05-07T05:22:55;14.10;99.90
6106;DHT22;3083;51.508;7.966;2023-05-07T05:25:23;14.20;99.90
6106;DHT22;3083;51.508;7.966;2023-05-07T05:27:50;14.30;99.90
6106;DHT22;3083;51.508;7.966;2023-05-07T05:30:17;14.30;99.90
6106;DHT22;3083;51.508;7.966;2023-05-07T05:32:44;14.40;99.90
6106;DHT22;3083;51.508;7.966;2023-05-07T05:35:11;14.50;99.90
6106;DHT22;3083;51.508;7.966;2023-05-07T05:37:38;14.60;99.90
6106;DHT22;3083;51.508;7.966;2023-05-07T05:40:06;14.60;99.90
6106;DHT22;3083;51.508;7.966;2023-05-07T05:42:34;14.70;99.90
6106;DHT22;3083;51.508;7.966;2023-05-07T05:45:01;14.80;99.90
6106;DHT22;3083;51.508;7.966;2023-05-07T05:47:29;14.80;99.90
6106;DHT22;3083;51.508;7.966;2023-05-07T05:49:56;14.90;99.90
6106;DHT22;3083;51.508;7.966;2023-05-07T05:52:23;15.00;99.90
6106;DHT22;3083;51.508;7.966;2023-05-07T05:54:50;15.20;99.90
6106;DHT22;3083;51.508;7.966;2023-05-07T05:57:17;15.50;99.90
6106;DHT22;3083;51.508;7.966;2023-05-07T05:59:46;15.80;99.90
6106;DHT22;3083;51.508;7.966;2023-05-07T06:02:13;16.10;99.90
6106;DHT22;3083;51.508;7.966;2023-05-07T06:04:40;16.40;99.90
6106;DHT22;3083;51.508;7.966;2023-05-07T06:07:08;16.60;99.90
6106;DHT22;3083;51.508;7.966;2023-05-07T06:09:35;16.90;99.90
6106;DHT22;3083;51.508;7.966;2023-05-07T06:12:02;17.20;99.90
6106;DHT22;3083;51.508;7.966;2023-05-07T06:14:29;17.40;99.90
6106;DHT22;3083;51.508;7.966;2023-05-07T06:16:59;17.70;99.90
6106;DHT22;3083;51.508;7.966;2023-05-07T06:19:26;18.00;99.90
6106;DHT22;3083;51.508;7.966;2023-05-07T06:21:53;18.20;99.90
6106;DHT22;3083;51.508;7.966;2023-05-07T06:24:21;18.40;99.90
6106;DHT22;3083;51.508;7.966;2023-05-07T06:26:48;18.60;99.90
6106;DHT22;3083;51.508;7.966;2023-05-07T06:29:15;18.90;99.90
6106;DHT22;3083;51.508;7.966;2023-05-07T06:31:42;19.20;99.90
6106;DHT22;3083;51.508;7.966;2023-05-07T06:34:11;19.40;99.90
6106;DHT22;3083;51.508;7.966;2023-05-07T06:36:39;19.70;99.90
6106;DHT22;3083;51.508;7.966;2023-05-07T06:39:07;19.70;99.90
6106;DHT22;3083;51.508;7.966;2023-05-07T06:41:33;19.70;99.90
6106;DHT22;3083;51.508;7.966;2023-05-07T06:44:01;19.50;99.90
6106;DHT22;3083;51.508;7.966;2023-05-07T06:46:28;19.30;99.90
6106;DHT22;3083;51.508;7.966;2023-05-07T06:48:55;19.10;99.90
6106;DHT22;3083;51.508;7.966;2023-05-07T06:51:24;18.90;99.90
6106;DHT22;3083;51.508;7.966;2023-05-07T06:53:51;18.80;99.90
6106;DHT22;3083;51.508;7.966;2023-05-07T06:56:18;18.70;99.90
6106;DHT22;3083;51.508;7.966;2023-05-07T06:58:45;18.60;99.90
6106;DHT22;3083;51.508;7.966;2023-05-07T07:01:12;18.70;99.90
6106;DHT22;3083;51.508;7.966;2023-05-07T07:03:39;18.80;99.90
6106;DHT22;3083;51.508;7.966;2023-05-07T07:06:06;18.90;99.90
6106;DHT22;3083;51.508;7.966;2023-05-07T07:08:35;18.90;99.90
6106;DHT22;3083;51.508;7.966;2023-05-07T07:11:04;19.00;99.90
6106;DHT22;3083;51.508;7.966;2023-05-07T07:13:31;19.00;99.90
6106;DHT22;3083;51.508;7.966;2023-05-07T07:15:58;19.10;99.90
6106;DHT22;3083;51.508;7.966;2023-05-07T07:18:25;19.20;99.90
6106;DHT22;3083;51.508;7.966;2023-05-07T07:20:52;19.20;99.90
6106;DHT22;3083;51.508;7.966;2023-05-07T07:23:19;19.30;99.90
6106;DHT22;3083;51.508;7.966;2023-05-07T07:25:47;19.30;99.90
6106;DHT22;3083;51.508;7.966;2023-05-07T07:28:14;19.20;99.90
6106;DHT22;3083;51.508;7.966;2023-05-07T07:30:41;19.10;99.90
6106;DHT22;3083;51.508;7.966;2023-05-07T07:33:08;19.10;99.90
6106;DHT22;3083;51.508;7.966;2023-05-07T07:35:35;19.10;99.90
6106;DHT22;3083;51.508;7.966;2023-05-07T07:38:01;19.10;99.90
6106;DHT22;3083;51.508;7.966;2023-05-07T07:40:28;19.20;99.90
6106;DHT22;3083;51.508;7.966;2023-05-07T07:42:57;19.00;99.90
6106;DHT22;3083;51.508;7.966;2023-05-07T07:45:24;19.00;99.90
6106;DHT22;3083;51.508;7.966;2023-05-07T07:47:51;19.10;99.90
6106;DHT22;3083;51.508;7.966;2023-05-07T07:50:18;19.20;99.90
6106;DHT22;3083;51.508;7.966;2023-05-07T07:52:45;19.20;99.90
6106;DHT22;3083;51.508;7.966;2023-05-07T07:55:12;19.30;99.90
6106;DHT22;3083;51.508;7.966;2023-05-07T07:57:40;19.50;99.90
6106;DHT22;3083;51.508;7.966;2023-05-07T08:00:09;19.60;99.90
6106;DHT22;3083;51.508;7.966;2023-05-07T08:02:36;19.60;99.90
6106;DHT22;3083;51.508;7.966;2023-05-07T08:05:04;19.50;99.90
6106;DHT22;3083;51.508;7.966;2023-05-07T08:07:31;19.50;99.90
6106;DHT22;3083;51.508;7.966;2023-05-07T08:09:57;19.50;99.90
6106;DHT22;3083;51.508;7.966;2023-05-07T08:12:24;19.50;99.90
6106;DHT22;3083;51.508;7.966;2023-05-07T08:14:51;19.40;99.90
6106;DHT22;3083;51.508;7.966;2023-05-07T08:17:20;19.50;99.90
6106;DHT22;3083;51.508;7.966;2023-05-07T08:19:47;19.60;99.90
6106;DHT22;3083;51.508;7.966;2023-05-07T08:22:14;19.80;99.90
6106;DHT22;3083;51.508;7.966;2023-05-07T08:24:43;19.90;99.90
6106;DHT22;3083;51.508;7.966;2023-05-07T08:27:10;19.90;99.90
6106;DHT22;3083;51.508;7.966;2023-05-07T08:29:37;20.00;99.90
6106;DHT22;3083;51.508;7.966;2023-05-07T08:32:04;20.10;99.90
6106;DHT22;3083;51.508;7.966;2023-05-07T08:34:32;20.10;99.90
6106;DHT22;3083;51.508;7.966;2023-05-07T08:36:59;20.20;99.90
6106;DHT22;3083;51.508;7.966;2023-05-07T08:39:26;20.40;99.90
6106;DHT22;3083;51.508;7.966;2023-05-07T08:41:55;20.50;99.90
6106;DHT22;3083;51.508;7.966;2023-05-07T08:44:23;20.40;99.90
6106;DHT22;3083;51.508;7.966;2023-05-07T08:46:53;20.60;99.90
6106;DHT22;3083;51.508;7.966;2023-05-07T08:49:22;20.80;99.90
6106;DHT22;3083;51.508;7.966;2023-05-07T08:51:52;21.00;99.90
6106;DHT22;3083;51.508;7.966;2023-05-07T08:54:20;21.10;99.90
6106;DHT22;3083;51.508;7.966;2023-05-07T08:56:47;21.30;99.90
6106;DHT22;3083;51.508;7.966;2023-05-07T08:59:15;21.30;99.90
6106;DHT22;3083;51.508;7.966;2023-05-07T09:01:42;21.20;99.90
6106;DHT22;3083;51.508;7.966;2023-05-07T09:04:09;21.10;99.90
6106;DHT22;3083;51.508;7.966;2023-05-07T09:06:36;21.10;99.90
6106;DHT22;3083;51.508;7.966;2023-05-07T09:09:05;21.00;99.90
6106;DHT22;3083;51.508;7.966;2023-05-07T09:11:31;20.90;99.90
6106;DHT22;3083;51.508;7.966;2023-05-07T09:13:58;20.80;99.90
6106;DHT22;3083;51.508;7.966;2023-05-07T09:16:28;20.80;99.90
6106;DHT22;3083;51.508;7.966;2023-05-07T09:18:58;20.70;99.90
6106;DHT22;3083;51.508;7.966;2023-05-07T09:21:26;20.70;99.90
6106;DHT22;3083;51.508;7.966;2023-05-07T09:23:54;20.70;99.90
6106;DHT22;3083;51.508;7.966;2023-05-07T09:26:24;20.80;99.90
6106;DHT22;3083;51.508;7.966;2023-05-07T09:28:51;21.10;99.90
6106;DHT22;3083;51.508;7.966;2023-05-07T09:31:18;21.30;99.90
6106;DHT22;3083;51.508;7.966;2023-05-07T09:33:46;21.40;99.90
6106;DHT22;3083;51.508;7.966;2023-05-07T09:36:13;21.30;99.90
6106;DHT22;3083;51.508;7.966;2023-05-07T09:38:40;21.40;99.90
6106;DHT22;3083;51.508;7.966;2023-05-07T09:41:08;21.70;99.90
6106;DHT22;3083;51.508;7.966;2023-05-07T09:43:38;21.90;99.90
6106;DHT22;3083;51.508;7.966;2023-05-07T09:46:11;22.20;99.90
6106;DHT22;3083;51.508;7.966;2023-05-07T09:48:39;22.30;99.90
6106;DHT22;3083;51.508;7.966;2023-05-07T09:51:17;22.30;99.90
6106;DHT22;3083;51.508;7.966;2023-05-07T09:53:45;22.30;99.90
6106;DHT22;3083;51.508;7.966;2023-05-07T09:56:14;22.20;99.90
6106;DHT22;3083;51.508;7.966;2023-05-07T09:58:43;22.30;99.90
6106;DHT22;3083;51.508;7.966;2023-05-07T10:01:12;22.40;99.90
6106;DHT22;3083;51.508;7.966;2023-05-07T10:03:40;22.40;99.90
6106;DHT22;3083;51.508;7.966;2023-05-07T10:06:08;22.40;99.90
6106;DHT22;3083;51.508;7.966;2023-05-07T10:08:36;22.40;99.90
6106;DHT22;3083;51.508;7.966;2023-05-07T10:11:04;22.40;99.90
6106;DHT22;3083;51.508;7.966;2023-05-07T10:13:32;22.40;99.90
6106;DHT22;3083;51.508;7.966;2023-05-07T10:16:03;22.60;99.90
6106;DHT22;3083;51.508;7.966;2023-05-07T10:18:31;22.70;99.90
6106;DHT22;3083;51.508;7.966;2023-05-07T10:21:02;22.70;99.90
6106;DHT22;3083;51.508;7.966;2023-05-07T10:23:32;22.70;99.90
6106;DHT22;3083;51.508;7.966;2023-05-07T10:26:01;22.70;99.90
6106;DHT22;3083;51.508;7.966;2023-05-07T10:28:29;22.80;99.90
6106;DHT22;3083;51.508;7.966;2023-05-07T10:31:07;22.90;99.90
6106;DHT22;3083;51.508;7.966;2023-05-07T10:33:37;22.90;99.90
6106;DHT22;3083;51.508;7.966;2023-05-07T10:36:06;22.90;99.90
6106;DHT22;3083;51.508;7.966;2023-05-07T10:38:33;23.10;99.90
6106;DHT22;3083;51.508;7.966;2023-05-07T10:41:01;23.20;99.90
6106;DHT22;3083;51.508;7.966;2023-05-07T10:43:39;23.40;99.90
6106;DHT22;3083;51.508;7.966;2023-05-07T10:46:23;23.60;99.90
6106;DHT22;3083;51.508;7.966;2023-05-07T10:49:09;23.90;99.90
6106;DHT22;3083;51.508;7.966;2023-05-07T10:51:38;24.00;99.90
6106;DHT22;3083;51.508;7.966;2023-05-07T10:54:21;23.90;99.90
6106;DHT22;3083;51.508;7.966;2023-05-07T10:56:49;23.90;99.90
6106;DHT22;3083;51.508;7.966;2023-05-07T10:59:38;24.00;99.90
6106;DHT22;3083;51.508;7.966;2023-05-07T11:02:09;24.20;99.90
6106;DHT22;3083;51.508;7.966;2023-05-07T11:04:36;24.20;99.90
6106;DHT22;3083;51.508;7.966;2023-05-07T11:07:31;24.10;99.90
6106;DHT22;3083;51.508;7.966;2023-05-07T11:10:03;24.30;99.90
6106;DHT22;3083;51.508;7.966;2023-05-07T11:12:49;24.50;99.90
6106;DHT22;3083;51.508;7.966;2023-05-07T11:15:35;24.70;99.90
6106;DHT22;3083;51.508;7.966;2023-05-07T11:18:04;24.70;99.90
6106;DHT22;3083;51.508;7.966;2023-05-07T11:20:51;24.60;99.90
6106;DHT22;3083;51.508;7.966;2023-05-07T11:26:42;24.90;99.90
6106;DHT22;3083;51.508;7.966;2023-05-07T11:29:14;25.10;99.90
6106;DHT22;3083;51.508;7.966;2023-05-07T11:31:43;25.30;99.90
6106;DHT22;3083;51.508;7.966;2023-05-07T11:34:12;25.20;99.90
6106;DHT22;3083;51.508;7.966;2023-05-07T11:36:43;25.30;99.90
6106;DHT22;3083;51.508;7.966;2023-05-07T11:39:26;25.20;99.90
6106;DHT22;3083;51.508;7.966;2023-05-07T11:41:54;25.40;99.90
6106;DHT22;3083;51.508;7.966;2023-05-07T11:44:21;25.30;99.90
6106;DHT22;3083;51.508;7.966;2023-05-07T11:46:48;25.10;99.90
6106;DHT22;3083;51.508;7.966;2023-05-07T11:49:19;25.00;99.90
6106;DHT22;3083;51.508;7.966;2023-05-07T11:51:46;24.80;99.90
6106;DHT22;3083;51.508;7.966;2023-05-07T11:54:16;24.60;99.90
6106;DHT22;3083;51.508;7.966;2023-05-07T11:56:44;24.60;99.90
6106;DHT22;3083;51.508;7.966;2023-05-07T11:59:11;24.80;99.90
6106;DHT22;3083;51.508;7.966;2023-05-07T12:01:38;24.90;99.90
6106;DHT22;3083;51.508;7.966;2023-05-07T12:04:05;24.70;99.90
6106;DHT22;3083;51.508;7.966;2023-05-07T12:06:36;24.20;99.90
6106;DHT22;3083;51.508;7.966;2023-05-07T12:09:04;23.80;99.90
6106;DHT22;3083;51.508;7.966;2023-05-07T12:11:36;23.50;99.90
6106;DHT22;3083;51.508;7.966;2023-05-07T12:14:05;23.10;99.90
6106;DHT22;3083;51.508;7.966;2023-05-07T12:16:32;22.80;99.90
6106;DHT22;3083;51.508;7.966;2023-05-07T12:18:59;22.60;99.90
6106;DHT22;3083;51.508;7.966;2023-05-07T12:21:26;22.40;99.90
6106;DHT22;3083;51.508;7.966;2023-05-07T12:23:55;22.20;99.90
6106;DHT22;3083;51.508;7.966;2023-05-07T12:26:23;22.20;99.90
6106;DHT22;3083;51.508;7.966;2023-05-07T12:28:50;22.10;99.90
6106;DHT22;3083;51.508;7.966;2023-05-07T12:31:17;22.10;99.90
6106;DHT22;3083;51.508;7.966;2023-05-07T12:33:45;22.10;99.90
6106;DHT22;3083;51.508;7.966;2023-05-07T12:36:13;22.10;99.90
6106;DHT22;3083;51.508;7.966;2023-05-07T12:38:40;22.10;99.90
6106;DHT22;3083;51.508;7.966;2023-05-07T12:41:10;22.10;99.90
6106;DHT22;3083;51.508;7.966;2023-05-07T12:43:38;22.20;99.90
6106;DHT22;3083;51.508;7.966;2023-05-07T12:46:05;22.40;99.90
6106;DHT22;3083;51.508;7.966;2023-05-07T12:48:33;22.50;99.90
6106;DHT22;3083;51.508;7.966;2023-05-07T12:51:01;22.50;99.90
6106;DHT22;3083;51.508;7.966;2023-05-07T12:53:29;22.60;99.90
6106;DHT22;3083;51.508;7.966;2023-05-07T12:55:57;22.60;99.90
6106;DHT22;3083;51.508;7.966;2023-05-07T12:58:27;22.60;99.90
6106;DHT22;3083;51.508;7.966;2023-05-07T13:00:55;22.50;99.90
6106;DHT22;3083;51.508;7.966;2023-05-07T13:03:28;22.40;99.90
6106;DHT22;3083;51.508;7.966;2023-05-07T13:05:57;22.30;99.90
6106;DHT22;3083;51.508;7.966;2023-05-07T13:08:29;22.20;99.90
6106;DHT22;3083;51.508;7.966;2023-05-07T13:10:57;22.10;99.90
6106;DHT22;3083;51.508;7.966;2023-05-07T13:13:27;21.90;99.90
6106;DHT22;3083;51.508;7.966;2023-05-07T13:15:54;21.80;99.90
6106;DHT22;3083;51.508;7.966;2023-05-07T13:18:21;21.70;99.90
6106;DHT22;3083;51.508;7.966;2023-05-07T13:20:48;21.50;99.90
6106;DHT22;3083;51.508;7.966;2023-05-07T13:23:15;21.30;99.90
6106;DHT22;3083;51.508;7.966;2023-05-07T13:25:42;21.10;99.90
6106;DHT22;3083;51.508;7.966;2023-05-07T13:28:08;21.00;99.90
6106;DHT22;3083;51.508;7.966;2023-05-07T13:30:37;20.80;99.90
6106;DHT22;3083;51.508;7.966;2023-05-07T13:33:04;20.80;99.90
6106;DHT22;3083;51.508;7.966;2023-05-07T13:35:31;20.70;99.90
6106;DHT22;3083;51.508;7.966;2023-05-07T13:37:58;20.60;99.90
6106;DHT22;3083;51.508;7.966;2023-05-07T13:40:25;20.50;99.90
6106;DHT22;3083;51.508;7.966;2023-05-07T13:42:52;20.40;99.90
6106;DHT22;3083;51.508;7.966;2023-05-07T13:45:19;20.30;99.90
6106;DHT22;3083;51.508;7.966;2023-05-07T13:47:48;20.30;99.90
6106;DHT22;3083;51.508;7.966;2023-05-07T13:50:16;20.30;99.90
6106;DHT22;3083;51.508;7.966;2023-05-07T13:52:43;20.30;99.90
6106;DHT22;3083;51.508;7.966;2023-05-07T13:55:16;20.30;99.90
6106;DHT22;3083;51.508;7.966;2023-05-07T13:57:43;20.30;99.90
6106;DHT22;3083;51.508;7.966;2023-05-07T14:00:11;20.30;99.90
6106;DHT22;3083;51.508;7.966;2023-05-07T14:02:38;20.20;99.90
6106;DHT22;3083;51.508;7.966;2023-05-07T14:05:07;20.10;99.90
6106;DHT22;3083;51.508;7.966;2023-05-07T14:07:34;20.10;99.90
6106;DHT22;3083;51.508;7.966;2023-05-07T14:10:01;20.00;99.90
6106;DHT22;3083;51.508;7.966;2023-05-07T14:12:28;19.90;99.90
6106;DHT22;3083;51.508;7.966;2023-05-07T14:14:55;19.80;99.90
6106;DHT22;3083;51.508;7.966;2023-05-07T14:17:22;19.70;99.90
6106;DHT22;3083;51.508;7.966;2023-05-07T14:19:51;19.70;99.90
6106;DHT22;3083;51.508;7.966;2023-05-07T14:22:22;19.60;99.90
6106;DHT22;3083;51.508;7.966;2023-05-07T14:24:49;19.60;99.90
6106;DHT22;3083;51.508;7.966;2023-05-07T14:27:16;19.60;99.90
6106;DHT22;3083;51.508;7.966;2023-05-07T14:29:43;19.60;99.90
6106;DHT22;3083;51.508;7.966;2023-05-07T14:32:11;19.50;99.90
6106;DHT22;3083;51.508;7.966;2023-05-07T14:34:38;19.50;99.90
6106;DHT22;3083;51.508;7.966;2023-05-07T14:37:05;19.50;99.90
6106;DHT22;3083;51.508;7.966;2023-05-07T14:39:33;19.50;99.90
6106;DHT22;3083;51.508;7.966;2023-05-07T14:42:00;19.50;99.90
6106;DHT22;3083;51.508;7.966;2023-05-07T14:44:27;19.50;99.90
6106;DHT22;3083;51.508;7.966;2023-05-07T14:46:54;19.40;99.90
6106;DHT22;3083;51.508;7.966;2023-05-07T14:49:21;19.40;99.90
6106;DHT22;3083;51.508;7.966;2023-05-07T14:51:49;19.30;99.90
6106;DHT22;3083;51.508;7.966;2023-05-07T14:54:16;19.30;99.90
6106;DHT22;3083;51.508;7.966;2023-05-07T14:56:44;19.30;99.90
6106;DHT22;3083;51.508;7.966;2023-05-07T14:59:11;19.20;99.90
6106;DHT22;3083;51.508;7.966;2023-05-07T15:01:38;19.20;99.90
6106;DHT22;3083;51.508;7.966;2023-05-07T15:04:10;19.10;99.90
6106;DHT22;3083;51.508;7.966;2023-05-07T15:06:37;18.90;99.90
6106;DHT22;3083;51.508;7.966;2023-05-07T15:09:04;18.90;99.90
6106;DHT22;3083;51.508;7.966;2023-05-07T15:11:31;18.80;99.90
6106;DHT22;3083;51.508;7.966;2023-05-07T15:14:00;18.70;99.90
6106;DHT22;3083;51.508;7.966;2023-05-07T15:16:27;18.60;99.90
6106;DHT22;3083;51.508;7.966;2023-05-07T15:18:53;18.50;99.90
6106;DHT22;3083;51.508;7.966;2023-05-07T15:21:20;18.40;99.90
6106;DHT22;3083;51.508;7.966;2023-05-07T15:23:48;18.30;99.90
6106;DHT22;3083;51.508;7.966;2023-05-07T15:26:14;18.30;99.90
6106;DHT22;3083;51.508;7.966;2023-05-07T15:28:41;18.20;99.90
6106;DHT22;3083;51.508;7.966;2023-05-07T15:31:09;18.20;99.90
6106;DHT22;3083;51.508;7.966;2023-05-07T15:33:37;18.10;99.90
6106;DHT22;3083;51.508;7.966;2023-05-07T15:36:05;18.10;99.90
6106;DHT22;3083;51.508;7.966;2023-05-07T15:38:31;18.10;99.90
6106;DHT22;3083;51.508;7.966;2023-05-07T15:40:58;18.10;99.90
6106;DHT22;3083;51.508;7.966;2023-05-07T15:43:25;18.00;99.90
6106;DHT22;3083;51.508;7.966;2023-05-07T15:45:52;18.00;99.90
6106;DHT22;3083;51.508;7.966;2023-05-07T15:48:21;18.00;99.90
6106;DHT22;3083;51.508;7.966;2023-05-07T15:50:48;18.00;99.90
6106;DHT22;3083;51.508;7.966;2023-05-07T15:53:15;18.00;99.90
6106;DHT22;3083;51.508;7.966;2023-05-07T15:55:42;18.00;99.90
6106;DHT22;3083;51.508;7.966;2023-05-07T15:58:09;17.90;99.90
6106;DHT22;3083;51.508;7.966;2023-05-07T16:00:37;17.90;99.90
6106;DHT22;3083;51.508;7.966;2023-05-07T16:03:06;17.90;99.90
6106;DHT22;3083;51.508;7.966;2023-05-07T16:05:34;17.90;99.90
6106;DHT22;3083;51.508;7.966;2023-05-07T16:08:02;17.90;99.90
6106;DHT22;3083;51.508;7.966;2023-05-07T16:10:30;18.00;99.90